sensor_id;sensor_type;location;lat;lon;timestamp;pressure;altitude;pressure_sealevel;temperature;humidity
71903;BME280;59778;50.310;18.780;2022-10-31T00:06:29;99235.91;;;10.29;94.48
71903;BME280;59778;50.310;18.780;2022-10-31T00:21:51;99244.66;;;10.09;94.25
71903;BME280;59778;50.310;18.780;2022-10-31T00:37:12;99243.03;;;10.00;93.84
71903;BME280;59778;50.310;18.780;2022-10-31T00:52:33;99245.66;;;9.85;95.55
71903;BME280;59778;50.310;18.780;2022-10-31T01:07:54;99251.69;;;9.72;95.66
71903;BME280;59778;50.310;18.780;2022-10-31T01:23:15;99246.00;;;9.59;96.19
71903;BME280;59778;50.310;18.780;2022-10-31T01:38:37;99236.53;;;9.55;94.81
71903;BME280;59778;50.310;18.780;2022-10-31T01:54:02;99245.72;;;9.46;93.80
71903;BME280;59778;50.310;18.780;2022-10-31T02:09:25;99253.25;;;9.28;94.50
71903;BME280;59778;50.310;18.780;2022-10-31T02:56:29;99267.91;;;8.86;93.75
71903;BME280;59778;50.310;18.780;2022-10-31T03:27:27;99279.13;;;8.67;93.15
71903;BME280;59778;50.310;18.780;2022-10-31T03:43:01;99289.31;;;8.57;93.03
71903;BME280;59778;50.310;18.780;2022-10-31T03:58:28;99300.13;;;8.49;95.04
71903;BME280;59778;50.310;18.780;2022-10-31T04:13:51;99299.28;;;8.40;94.76
71903;BME280;59778;50.310;18.780;2022-10-31T04:29:12;99302.81;;;8.33;95.07
71903;BME280;59778;50.310;18.780;2022-10-31T04:44:35;99305.47;;;8.25;91.71
71903;BME280;59778;50.310;18.780;2022-10-31T04:59:56;99314.25;;;8.19;94.06
71903;BME280;59778;50.310;18.780;2022-10-31T05:15:20;99309.31;;;8.06;91.41
71903;BME280;59778;50.310;18.780;2022-10-31T05:30:42;99316.38;;;7.91;92.37
71903;BME280;59778;50.310;18.780;2022-10-31T05:46:03;99336.88;;;7.93;91.42
71903;BME280;59778;50.310;18.780;2022-10-31T06:01:24;99350.38;;;7.93;92.03
71903;BME280;59778;50.310;18.780;2022-10-31T06:16:45;99362.44;;;8.15;93.63
71903;BME280;59778;50.310;18.780;2022-10-31T06:32:09;99374.72;;;8.60;95.29
71903;BME280;59778;50.310;18.780;2022-10-31T06:47:31;99376.75;;;9.14;95.71
71903;BME280;59778;50.310;18.780;2022-10-31T07:18:17;99397.78;;;10.53;98.17
71903;BME280;59778;50.310;18.780;2022-10-31T07:33:38;99401.03;;;11.17;95.41
71903;BME280;59778;50.310;18.780;2022-10-31T07:48:59;99394.41;;;11.71;93.77
71903;BME280;59778;50.310;18.780;2022-10-31T08:04:20;99400.38;;;12.61;90.29
71903;BME280;59778;50.310;18.780;2022-10-31T08:19:41;99402.03;;;13.19;86.61
71903;BME280;59778;50.310;18.780;2022-10-31T08:35:02;99410.69;;;14.13;83.09
71903;BME280;59778;50.310;18.780;2022-10-31T08:50:23;99409.13;;;14.92;78.25
71903;BME280;59778;50.310;18.780;2022-10-31T09:05:45;99406.22;;;15.53;76.17
71903;BME280;59778;50.310;18.780;2022-10-31T09:21:07;99407.91;;;16.44;74.57
71903;BME280;59778;50.310;18.780;2022-10-31T09:36:28;99399.78;;;17.07;71.13
71903;BME280;59778;50.310;18.780;2022-10-31T09:52:11;99395.72;;;17.90;67.98
71903;BME280;59778;50.310;18.780;2022-10-31T10:08:03;99396.88;;;18.74;65.57
71903;BME280;59778;50.310;18.780;2022-10-31T10:23:48;99390.69;;;18.78;64.78
71903;BME280;59778;50.310;18.780;2022-10-31T10:39:16;99379.88;;;19.48;61.60
71903;BME280;59778;50.310;18.780;2022-10-31T11:10:27;99355.41;;;20.73;57.78
71903;BME280;59778;50.310;18.780;2022-10-31T11:41:17;99341.38;;;21.36;55.54
71903;BME280;59778;50.310;18.780;2022-10-31T11:56:41;99333.94;;;21.37;53.02
71903;BME280;59778;50.310;18.780;2022-10-31T12:27:54;99317.44;;;21.97;51.61
71903;BME280;59778;50.310;18.780;2022-10-31T12:43:36;99306.91;;;22.37;50.05
71903;BME280;59778;50.310;18.780;2022-10-31T12:59:10;99297.22;;;22.62;50.34
71903;BME280;59778;50.310;18.780;2022-10-31T13:14:54;99292.53;;;22.89;47.86
71903;BME280;59778;50.310;18.780;2022-10-31T13:30:21;99286.63;;;22.80;48.74
71903;BME280;59778;50.310;18.780;2022-10-31T13:45:51;99284.00;;;23.27;47.08
71903;BME280;59778;50.310;18.780;2022-10-31T14:01:19;99284.41;;;22.77;48.29
71903;BME280;59778;50.310;18.780;2022-10-31T14:16:43;99270.94;;;22.16;49.59
71903;BME280;59778;50.310;18.780;2022-10-31T15:03:17;99253.91;;;19.84;60.15
71903;BME280;59778;50.310;18.780;2022-10-31T15:18:47;99249.47;;;18.36;65.27
71903;BME280;59778;50.310;18.780;2022-10-31T15:34:21;99254.84;;;17.22;69.98
71903;BME280;59778;50.310;18.780;2022-10-31T15:49:55;99255.47;;;16.37;72.85
71903;BME280;59778;50.310;18.780;2022-10-31T16:05:18;99261.72;;;15.62;75.91
71903;BME280;59778;50.310;18.780;2022-10-31T16:20:40;99273.19;;;14.93;78.43
71903;BME280;59778;50.310;18.780;2022-10-31T16:51:41;99278.03;;;13.97;82.97
71903;BME280;59778;50.310;18.780;2022-10-31T17:07:07;99280.09;;;13.48;83.08
71903;BME280;59778;50.310;18.780;2022-10-31T17:22:29;99283.22;;;13.10;85.26
71903;BME280;59778;50.310;18.780;2022-10-31T17:37:50;99291.91;;;12.71;86.68
71903;BME280;59778;50.310;18.780;2022-10-31T17:53:12;99280.56;;;12.47;83.61
71903;BME280;59778;50.310;18.780;2022-10-31T18:08:35;99288.59;;;12.12;85.83
71903;BME280;59778;50.310;18.780;2022-10-31T18:23:59;99275.41;;;11.80;89.12
71903;BME280;59778;50.310;18.780;2022-10-31T18:39:22;99274.84;;;11.55;89.88
71903;BME280;59778;50.310;18.780;2022-10-31T18:54:45;99269.69;;;11.31;88.15
71903;BME280;59778;50.310;18.780;2022-10-31T19:10:06;99249.91;;;11.22;90.39
71903;BME280;59778;50.310;18.780;2022-10-31T19:25:28;99260.97;;;11.06;87.69
71903;BME280;59778;50.310;18.780;2022-10-31T19:40:54;99243.16;;;10.74;88.99
71903;BME280;59778;50.310;18.780;2022-10-31T19:56:17;99247.13;;;10.64;88.73
71903;BME280;59778;50.310;18.780;2022-10-31T20:11:40;99241.69;;;10.49;89.78
71903;BME280;59778;50.310;18.780;2022-10-31T20:27:04;99225.41;;;10.26;91.05
71903;BME280;59778;50.310;18.780;2022-10-31T20:42:26;99235.78;;;10.23;89.43
71903;BME280;59778;50.310;18.780;2022-10-31T20:57:47;99218.06;;;10.04;85.89
71903;BME280;59778;50.310;18.780;2022-10-31T21:13:09;99198.91;;;9.83;88.89
71903;BME280;59778;50.310;18.780;2022-10-31T21:28:31;99203.59;;;9.66;87.41
71903;BME280;59778;50.310;18.780;2022-10-31T21:43:53;99203.03;;;9.48;91.67
71903;BME280;59778;50.310;18.780;2022-10-31T21:59:14;99179.63;;;9.47;90.28
71903;BME280;59778;50.310;18.780;2022-10-31T22:14:35;99163.09;;;9.34;87.85
71903;BME280;59778;50.310;18.780;2022-10-31T22:29:57;99152.66;;;9.23;89.32
71903;BME280;59778;50.310;18.780;2022-10-31T22:45:18;99149.88;;;9.08;86.41
71903;BME280;59778;50.310;18.780;2022-10-31T23:00:39;99137.22;;;8.92;89.17
71903;BME280;59778;50.310;18.780;2022-10-31T23:16:00;99146.44;;;8.75;89.37
71903;BME280;59778;50.310;18.780;2022-10-31T23:31:21;99126.81;;;8.65;90.17
71903;BME280;59778;50.310;18.780;2022-10-31T23:46:42;99140.94;;;8.28;92.29
